Time;durP1;ratioP1;P1;durP2;ratioP2;P2;SDS_P1;SDS_P2;PMS_P1;PMS_P2;Temp;Humidity;BMP_temperature;BMP_pressure;BME280_temperature;BME280_humidity;BME280_pressure;Samples;Min_cycle;Max_cycle;Signal;HPM_P1;HPM_P2
2023/01/08 00:01:52;;;;;;;17.17;7.47;;;;;;;2.35;75.01;101913.06;4914233;29;20487;-92
2023/01/08 00:04:17;;;;;;;12.60;8.18;;;;;;;2.27;75.13;101905.38;4914834;29;20047;-92
2023/01/08 00:06:43;;;;;;;9.55;6.68;;;;;;;2.13;74.74;101868.69;4916599;29;20055;-94
2023/01/08 00:09:10;;;;;;;11.77;6.78;;;;;;;2.22;74.96;101891.72;4917249;29;20027;-92
2023/01/08 00:11:35;;;;;;;9.38;6.47;;;;;;;2.07;74.68;101861.84;4916664;29;20462;-91
2023/01/08 00:14:01;;;;;;;14.32;6.15;;;;;;;2.21;74.45;101882.34;4917007;29;20127;-91
2023/01/08 00:16:27;;;;;;;11.68;6.72;;;;;;;2.21;74.55;101885.75;4916846;29;20035;-93
2023/01/08 00:18:52;;;;;;;11.85;7.47;;;;;;;2.01;74.81;101867.78;4915995;29;20063;-92
2023/01/08 00:21:18;;;;;;;10.30;6.97;;;;;;;2.23;75.11;101913.84;4916401;29;20131;-92
2023/01/08 00:23:43;;;;;;;12.38;7.60;;;;;;;2.01;74.66;101874.56;4916484;29;20097;-93
2023/01/08 00:26:09;;;;;;;10.70;7.07;;;;;;;2.32;74.53;101925.81;4915607;29;20051;-93
2023/01/08 00:28:35;;;;;;;9.20;5.53;;;;;;;2.20;74.79;101916.38;4916550;29;20052;-93
2023/01/08 00:31:07;;;;;;;7.60;6.50;;;;;;;2.15;75.07;101928.25;4915515;29;20055;-92
2023/01/08 00:33:33;;;;;;;17.42;6.47;;;;;;;2.09;75.34;101918.03;4915659;29;20039;-92
2023/01/08 00:35:59;;;;;;;8.60;5.90;;;;;;;2.13;75.75;101935.06;4915398;29;20530;-91
2023/01/08 00:38:25;;;;;;;20.10;5.78;;;;;;;2.04;75.93;101924.78;4915275;29;20039;-93
2023/01/08 00:40:51;;;;;;;8.13;4.80;;;;;;;1.86;75.74;101898.28;4916115;29;20062;-92
2023/01/08 00:43:17;;;;;;;6.72;5.43;;;;;;;2.05;75.78;101921.38;4900657;29;20437;-92
2023/01/08 00:45:42;;;;;;;10.38;7.90;;;;;;;1.86;75.34;101882.13;4915617;29;20070;-93
2023/01/08 00:48:08;;;;;;;8.30;5.32;;;;;;;2.00;75.64;101924.78;4913334;29;20044;-92
2023/01/08 00:50:34;;;;;;;11.18;6.47;;;;;;;2.10;75.50;101930.78;4900393;29;20038;-93
2023/01/08 00:53:00;;;;;;;14.95;7.28;;;;;;;1.98;75.90;101907.75;4917362;29;20119;-93
2023/01/08 00:55:25;;;;;;;10.75;7.07;;;;;;;1.82;75.58;101888.06;4916958;29;20126;-92
2023/01/08 00:57:51;;;;;;;10.13;5.40;;;;;;;1.78;75.90;101882.09;4916983;29;20036;-92
2023/01/08 01:00:16;;;;;;;12.23;7.55;;;;;;;1.96;75.67;101906.84;4917491;29;20122;-91
2023/01/08 01:02:44;;;;;;;5.30;4.57;;;;;;;1.81;75.98;101899.97;4917991;29;20059;-92
2023/01/08 01:05:14;;;;;;;8.30;5.20;;;;;;;1.80;75.89;101903.34;4917415;29;20028;-91
2023/01/08 01:07:40;;;;;;;7.90;6.60;;;;;;;1.69;75.75;101876.91;4918281;29;20425;-91
2023/01/08 01:10:06;;;;;;;11.18;6.38;;;;;;;1.62;75.20;101877.69;4916677;29;20032;-92
2023/01/08 01:12:31;;;;;;;7.22;5.03;;;;;;;1.68;75.38;101893.91;4915214;29;20411;-93
2023/01/08 01:14:57;;;;;;;12.15;8.40;;;;;;;2.16;75.00;101968.25;4918298;29;20032;-91
2023/01/08 01:17:22;;;;;;;6.75;4.60;;;;;;;1.81;74.48;101925.47;4917551;29;20482;-92
2023/01/08 01:19:48;;;;;;;13.25;5.95;;;;;;;1.61;74.57;101898.94;4901529;29;20039;-92
2023/01/08 01:22:13;;;;;;;9.93;6.50;;;;;;;1.47;75.00;101880.09;4917510;29;20056;-92
2023/01/08 01:24:39;;;;;;;5.60;4.60;;;;;;;1.85;74.79;101937.41;4918189;29;20038;-92
2023/01/08 01:27:06;;;;;;;7.47;6.32;;;;;;;1.48;74.74;101892.06;4918688;29;20175;-93
2023/01/08 01:29:31;;;;;;;8.50;6.90;;;;;;;1.83;75.36;101968.88;4916650;29;20122;-93
2023/01/08 01:31:57;;;;;;;9.40;5.53;;;;;;;1.49;75.52;101924.34;4917566;29;20065;-92
2023/01/08 01:34:23;;;;;;;13.02;6.53;;;;;;;1.62;75.97;101956.78;4901899;29;20063;-93
2023/01/08 01:36:48;;;;;;;5.97;5.40;;;;;;;1.48;75.76;101925.19;4914164;29;20046;-91
2023/01/08 01:39:14;;;;;;;13.88;6.40;;;;;;;1.19;75.74;101885.00;4886624;29;20027;-92
2023/01/08 01:41:43;;;;;;;9.63;5.95;;;;;;;1.56;75.65;101947.34;4914533;29;20043;-92
2023/01/08 01:44:35;;;;;;;14.65;6.45;;;;;;;1.72;75.61;101963.66;4888658;29;20043;-92
2023/01/08 01:47:33;;;;;;;14.90;8.32;;;;;;;1.69;75.74;101968.75;4918407;29;20027;-93
2023/01/08 01:50:35;;;;;;;6.10;4.78;;;;;;;1.26;75.76;101891.81;4919170;29;20023;-93
2023/01/08 01:53:02;;;;;;;7.05;5.18;;;;;;;1.51;75.16;101930.31;4922908;29;20038;-93
2023/01/08 01:55:28;;;;;;;6.90;5.15;;;;;;;1.63;74.84;101948.28;4919409;29;20024;-92
2023/01/08 01:58:14;;;;;;;11.98;6.63;;;;;;;1.72;75.23;101963.66;4919020;29;20110;-92
2023/01/08 02:00:40;;;;;;;10.23;6.70;;;;;;;1.47;74.48;101924.31;4914977;29;20029;-93
2023/01/08 02:03:06;;;;;;;9.00;5.68;;;;;;;1.25;74.34;101892.66;4899601;29;20092;-93
2023/01/08 02:05:40;;;;;;;10.88;7.25;;;;;;;1.20;74.08;101891.78;4891206;29;20031;-92
2023/01/08 02:08:09;;;;;;;6.28;4.95;;;;;;;1.08;74.37;101877.25;4919546;29;20114;-93
2023/01/08 02:10:46;;;;;;;14.63;8.23;;;;;;;1.55;74.27;101960.09;4902961;29;20053;-92
2023/01/08 02:13:14;;;;;;;13.07;5.38;;;;;;;1.15;74.62;101904.47;4920428;29;20616;-95
2023/01/08 02:16:04;;;;;;;6.22;5.50;;;;;;;1.40;74.98;101956.56;4902765;29;20040;-94
2023/01/08 02:22:17;;;;;;;11.48;7.47;;;;;;;1.35;75.17;101949.72;4935559;29;20043;-93
2023/01/08 02:25:02;;;;;;;22.27;7.82;;;;;;;1.33;75.19;101953.94;4934337;29;20047;-93
2023/01/08 02:27:28;;;;;;;13.90;7.18;;;;;;;0.89;75.19;101879.56;4918539;29;20027;-93
2023/01/08 02:29:54;;;;;;;8.10;5.70;;;;;;;1.13;75.33;101918.03;4919541;29;20502;-92
2023/01/08 02:32:27;;;;;;;12.32;6.35;;;;;;;0.89;75.65;101897.41;4920281;29;20096;-92
2023/01/08 02:34:54;;;;;;;11.23;7.32;;;;;;;0.95;76.00;101910.19;4903225;29;20056;-92
2023/01/08 02:37:19;;;;;;;7.70;5.78;;;;;;;0.95;76.16;101900.00;4918903;29;20035;-93
2023/01/08 02:43:06;;;;;;;7.78;6.25;;;;;;;1.23;76.26;101952.13;4870163;29;20056;-92
2023/01/08 02:45:36;;;;;;;8.30;6.13;;;;;;;1.22;75.76;101955.53;4869938;29;20046;-92
2023/01/08 02:51:47;;;;;;;10.30;6.03;;;;;;;1.27;75.56;101947.06;4946928;29;20049;-93
2023/01/08 02:58:10;;;;;;;9.65;7.05;;;;;;;0.72;76.03;101867.50;4958121;29;20102;-93
2023/01/08 03:00:36;;;;;;;13.23;7.82;;;;;;;0.79;75.86;101889.66;4940799;29;20035;-92
2023/01/08 03:24:12;;;;;;;8.43;5.95;;;;;;;1.04;75.84;101946.84;4863561;29;20520;-92
2023/01/08 03:30:06;;;;;;;6.50;5.55;;;;;;;0.88;75.25;101929.66;4897825;29;20094;-91
2023/01/08 03:32:31;;;;;;;5.50;3.42;;;;;;;0.78;75.59;101915.94;4908797;29;20032;-93
2023/01/08 03:34:59;;;;;;;9.50;6.35;;;;;;;0.52;75.88;101874.06;4906429;28;20054;-93
2023/01/08 03:48:16;;;;;;;9.68;6.22;;;;;;;1.12;75.34;101964.78;4938126;28;20038;-93
2023/01/08 04:00:56;;;;;;;4.03;3.65;;;;;;;0.68;75.25;101916.69;4935306;29;20095;-92
2023/01/08 04:03:55;;;;;;;4.97;3.22;;;;;;;0.92;75.45;101961.13;4905990;29;20032;-91
2023/01/08 04:07:16;;;;;;;8.73;6.30;;;;;;;0.97;75.37;101967.13;4920666;29;20094;-92
2023/01/08 04:31:13;;;;;;;4.30;3.60;;;;;;;0.33;75.94;101912.84;4937024;29;20421;-92
2023/01/08 04:37:01;;;;;;;4.57;3.70;;;;;;;0.27;75.87;101914.44;4952126;28;20121;-93
2023/01/08 04:40:17;;;;;;;7.03;6.25;;;;;;;0.66;75.95;101974.38;4924253;29;20047;-92
2023/01/08 04:43:43;;;;;;;17.08;6.53;;;;;;;0.70;75.33;101971.06;4940188;29;20035;-92
2023/01/08 05:03:30;;;;;;;9.50;5.55;;;;;;;0.52;75.87;101981.84;4955662;29;20074;-92
2023/01/08 05:09:27;;;;;;;6.18;5.10;;;;;;;0.62;75.40;101982.84;4956142;29;20034;-93
2023/01/08 05:11:55;;;;;;;7.78;5.47;;;;;;;0.22;75.05;101923.72;4922817;29;20482;-92
2023/01/08 05:14:28;;;;;;;4.65;3.28;;;;;;;0.61;74.71;101987.91;4907574;29;20027;-91
2023/01/08 05:27:27;;;;;;;9.35;4.90;;;;;;;0.34;74.39;101978.19;4955532;29;20046;-92
2023/01/08 05:45:01;;;;;;;9.85;4.35;;;;;;;0.35;74.76;101996.03;4958837;28;20148;-93
2023/01/08 06:54:31;;;;;;;;;;;;;;;;;;;;;
2023/01/08 07:01:21;;;;;;;9.07;7.18;;;;;;;0.21;78.41;102056.91;4957767;29;20039;-92
2023/01/08 07:38:03;;;;;;;11.98;7.80;;;;;;;0.68;77.91;101988.00;4957368;29;20039;-92
2023/01/08 07:40:29;;;;;;;9.80;8.50;;;;;;;0.79;77.83;101996.66;4908962;29;20095;-93
2023/01/08 07:46:29;;;;;;;16.05;10.07;;;;;;;1.06;77.66;102006.31;4957254;29;20043;-92
2023/01/08 07:56:07;;;;;;;11.77;9.93;;;;;;;1.47;76.52;102038.22;4957439;29;20039;-93
2023/01/08 07:58:33;;;;;;;21.23;11.95;;;;;;;1.47;76.43;102022.94;4925258;29;20502;-92
2023/01/08 08:01:07;;;;;;;18.08;13.57;;;;;;;1.72;75.66;102046.16;4905298;29;20510;-93
2023/01/08 08:03:33;;;;;;;16.73;11.70;;;;;;;1.62;75.67;102012.91;4889159;29;20039;-93
2023/01/08 08:06:13;;;;;;;22.42;14.32;;;;;;;1.77;75.85;102033.47;4890086;29;20042;-91
2023/01/08 08:08:38;;;;;;;22.30;14.00;;;;;;;1.89;75.31;102032.72;4903853;29;20126;-92
2023/01/08 08:11:06;;;;;;;25.27;14.63;;;;;;;1.95;75.29;102036.16;4907061;29;20035;-92
2023/01/08 08:13:32;;;;;;;17.13;13.32;;;;;;;2.00;75.20;102026.00;4904604;29;20032;-93
2023/01/08 08:16:02;;;;;;;23.15;15.90;;;;;;;2.12;75.10;102040.56;4900648;29;20067;-93
2023/01/08 08:18:27;;;;;;;19.63;14.32;;;;;;;2.21;74.83;102045.75;4907113;29;20400;-93
2023/01/08 08:20:53;;;;;;;23.63;16.92;;;;;;;2.37;74.30;102062.06;4906053;29;20130;-93
2023/01/08 08:23:19;;;;;;;21.83;12.98;;;;;;;2.25;73.99;102024.50;4904005;29;20168;-92
2023/01/08 08:25:44;;;;;;;17.15;10.23;;;;;;;2.63;74.15;102078.41;4903473;29;20059;-92
2023/01/08 08:28:10;;;;;;;18.05;11.05;;;;;;;2.44;74.32;102043.38;4905491;29;20031;-93
2023/01/08 08:30:36;;;;;;;15.02;9.88;;;;;;;2.56;73.98;102049.44;4906111;29;20077;-93
2023/01/08 08:33:02;;;;;;;18.90;12.48;;;;;;;2.59;73.75;102049.44;4906146;29;20560;-94
2023/01/08 08:35:28;;;;;;;17.85;11.55;;;;;;;2.53;74.32;102038.31;4906120;29;20039;-92
2023/01/08 08:37:54;;;;;;;16.65;8.05;;;;;;;2.66;73.91;102040.13;4904086;29;20034;-93
2023/01/08 08:40:20;;;;;;;18.38;11.00;;;;;;;2.80;73.88;102050.44;4922447;29;20485;-93
2023/01/08 08:42:45;;;;;;;25.50;12.77;;;;;;;2.83;73.96;102042.75;4922360;29;20043;-93
2023/01/08 08:45:11;;;;;;;20.27;12.15;;;;;;;2.86;73.67;102022.34;4907044;28;20082;-92
2023/01/08 08:47:36;;;;;;;13.43;9.93;;;;;;;2.93;73.53;102018.09;4907534;29;20024;-93
2023/01/08 08:50:05;;;;;;;20.77;14.07;;;;;;;3.06;73.25;102020.75;4923008;29;20117;-93
2023/01/08 08:52:32;;;;;;;23.65;12.45;;;;;;;3.27;73.19;102042.13;4907372;29;20054;-93
2023/01/08 08:54:57;;;;;;;16.58;11.15;;;;;;;3.28;72.79;102025.94;4904292;29;20055;-93
2023/01/08 08:57:26;;;;;;;15.82;12.63;;;;;;;3.44;72.66;102035.34;4888342;29;20528;-92
2023/01/08 08:59:54;;;;;;;17.75;11.90;;;;;;;3.68;72.32;102067.84;4906893;29;20066;-96
2023/01/08 09:03:05;;;;;;;29.08;14.40;;;;;;;3.76;72.37;102065.31;4909292;29;20027;-93
2023/01/08 09:05:34;;;;;;;20.15;12.18;;;;;;;3.71;72.04;102037.13;4939572;29;20035;-93
2023/01/08 09:08:13;;;;;;;21.40;12.63;;;;;;;3.56;71.94;102003.84;4922577;29;20069;-94
2023/01/08 09:10:42;;;;;;;15.77;11.25;;;;;;;3.78;71.72;102012.41;4924441;29;20050;-94
2023/01/08 09:13:08;;;;;;;20.38;10.75;;;;;;;3.93;71.72;102038.00;4923746;29;20098;-93
2023/01/08 09:15:35;;;;;;;20.75;11.07;;;;;;;4.14;71.27;102055.97;4922911;29;20031;-92
2023/01/08 09:18:00;;;;;;;26.40;12.95;;;;;;;4.12;71.27;102015.81;4907299;29;20023;-92
2023/01/08 09:20:28;;;;;;;20.27;12.98;;;;;;;4.14;71.09;102002.19;4907274;29;20421;-93
2023/01/08 09:22:56;;;;;;;15.55;10.32;;;;;;;4.22;70.63;102008.13;4907016;29;20035;-93
2023/01/08 09:25:22;;;;;;;21.35;11.25;;;;;;;4.29;70.46;102002.16;4907287;29;20503;-92
2023/01/08 09:27:47;;;;;;;19.80;12.30;;;;;;;4.37;70.45;101986.78;4903887;29;20114;-93
2023/01/08 09:30:31;;;;;;;21.13;13.57;;;;;;;4.53;69.93;102016.66;4888178;29;20042;-93
2023/01/08 09:33:35;;;;;;;16.02;11.25;;;;;;;4.86;69.19;102054.19;4888110;29;20032;-92
2023/01/08 09:36:00;;;;;;;20.88;11.07;;;;;;;4.58;69.53;101988.44;4936000;29;20082;-93
2023/01/08 09:38:27;;;;;;;18.20;12.20;;;;;;;4.56;69.92;101970.50;4921693;29;20047;-92
2023/01/08 09:40:55;;;;;;;20.70;14.25;;;;;;;4.73;68.83;101978.16;4905938;29;20031;-93
2023/01/08 09:43:22;;;;;;;15.05;11.15;;;;;;;4.78;69.20;101986.69;4905858;29;20056;-92
2023/01/08 09:45:53;;;;;;;19.30;10.82;;;;;;;4.94;69.39;102002.88;4903366;29;20118;-94
2023/01/08 09:48:19;;;;;;;16.67;9.63;;;;;;;4.89;68.90;101981.50;4903579;29;20115;-92
2023/01/08 09:50:46;;;;;;;20.33;12.55;;;;;;;4.90;69.10;101971.25;4901506;29;20031;-93
2023/01/08 09:53:13;;;;;;;18.00;10.35;;;;;;;5.37;68.19;102024.03;4901573;29;20051;-93
2023/01/08 09:55:39;;;;;;;18.77;10.27;;;;;;;5.15;68.69;101981.41;4917294;29;20034;-94
2023/01/08 09:58:11;;;;;;;15.13;10.73;;;;;;;5.06;68.99;101966.06;4904501;29;20030;-94
2023/01/08 10:00:37;;;;;;;16.65;9.13;;;;;;;5.05;68.63;101954.94;4905007;29;20035;-93
2023/01/08 10:03:03;;;;;;;17.65;10.40;;;;;;;5.54;68.18;102015.41;4903941;29;20485;-93
2023/01/08 10:05:28;;;;;;;9.38;6.85;;;;;;;5.29;68.08;101961.66;4901635;29;20528;-94
2023/01/08 10:07:54;;;;;;;7.68;6.13;;;;;;;5.40;68.65;101967.56;4916854;29;20059;-91
2023/01/08 10:10:24;;;;;;;10.50;6.13;;;;;;;5.56;68.22;101986.28;4909028;29;20066;-93
2023/01/08 10:12:50;;;;;;;7.60;6.75;;;;;;;5.48;67.48;101952.13;4890983;29;20024;-93
2023/01/08 10:15:17;;;;;;;13.02;8.18;;;;;;;5.78;67.12;101979.28;4906184;29;20038;-91
2023/01/08 10:18:02;;;;;;;13.30;8.95;;;;;;;5.96;67.70;102009.16;4918445;29;20031;-93
2023/01/08 10:20:27;;;;;;;12.60;8.35;;;;;;;5.93;67.65;101979.22;4918968;29;20485;-92
2023/01/08 10:22:53;;;;;;;12.73;8.02;;;;;;;5.91;67.19;101967.25;4917430;29;20106;-93
2023/01/08 10:25:24;;;;;;;13.02;8.32;;;;;;;5.79;67.53;101939.91;4917125;29;20039;-94
2023/01/08 10:27:51;;;;;;;13.00;6.82;;;;;;;6.14;66.93;101972.19;4909690;29;20607;-93
2023/01/08 10:30:32;;;;;;;11.95;7.40;;;;;;;6.14;66.81;101946.50;4898587;29;20063;-93
2023/01/08 10:33:03;;;;;;;10.75;7.10;;;;;;;6.38;66.42;101964.22;4919811;29;20042;-92
2023/01/08 10:35:32;;;;;;;14.00;8.57;;;;;;;6.11;66.30;101923.41;4916563;29;20838;-93
2023/01/08 10:37:58;;;;;;;15.15;8.60;;;;;;;6.36;66.03;101955.69;4903959;29;20039;-92
2023/01/08 10:40:43;;;;;;;17.38;8.43;;;;;;;6.37;66.25;101959.09;4906684;29;20114;-92
2023/01/08 10:43:13;;;;;;;11.32;8.48;;;;;;;6.28;66.09;101944.63;4901013;29;20561;-93
2023/01/08 10:45:40;;;;;;;10.05;6.90;;;;;;;6.22;66.63;101937.84;4899980;29;20098;-92
2023/01/08 10:48:07;;;;;;;12.80;7.15;;;;;;;6.28;66.27;101934.34;4916798;29;20035;-93
2023/01/08 10:50:33;;;;;;;8.75;7.85;;;;;;;6.22;66.03;101913.88;4915963;29;20509;-92
2023/01/08 10:53:04;;;;;;;9.65;8.20;;;;;;;6.48;66.14;101958.13;4898814;29;20055;-93
2023/01/08 10:55:38;;;;;;;14.00;8.30;;;;;;;6.33;66.14;101925.72;4914559;29;20498;-92
2023/01/08 10:58:14;;;;;;;12.10;8.90;;;;;;;6.20;66.10;101895.91;4901277;29;20039;-91
2023/01/08 11:00:39;;;;;;;12.57;7.97;;;;;;;6.46;66.11;101934.16;4900495;29;20043;-92
2023/01/08 11:03:06;;;;;;;8.75;7.22;;;;;;;6.42;66.00;101905.94;4900455;29;20066;-92
2023/01/08 11:05:38;;;;;;;8.00;6.45;;;;;;;6.25;65.85;101877.84;4915098;29;20106;-91
2023/01/08 11:08:12;;;;;;;13.25;9.18;;;;;;;6.32;65.60;101879.50;4893579;29;20533;-91
2023/01/08 11:10:37;;;;;;;12.35;9.23;;;;;;;6.75;67.78;101920.09;4921768;29;20045;-93
2023/01/08 11:13:05;;;;;;;14.50;7.75;;;;;;;6.68;66.44;101892.75;4908513;29;20126;-93
2023/01/08 11:18:53;;;;;;;13.70;7.40;;;;;;;7.14;65.27;101923.88;4956028;29;20077;-91
2023/01/08 11:21:21;;;;;;;13.25;6.30;;;;;;;6.93;65.06;101881.28;4904035;29;20066;-93
2023/01/08 11:23:47;;;;;;;8.23;6.15;;;;;;;7.03;64.85;101900.88;4901917;29;20081;-92
2023/01/08 11:26:18;;;;;;;11.30;7.40;;;;;;;7.05;65.13;101893.13;4901990;29;20032;-93
2023/01/08 11:28:59;;;;;;;12.73;6.77;;;;;;;7.31;64.88;101915.91;4896093;29;20039;-91
2023/01/08 11:31:38;;;;;;;6.93;4.78;;;;;;;7.14;65.28;101893.00;4934522;29;20166;-91
2023/01/08 11:34:27;;;;;;;11.60;9.00;;;;;;;7.04;65.44;101878.56;4926081;29;20027;-93
2023/01/08 11:36:56;;;;;;;18.52;7.50;;;;;;;7.00;64.74;101846.88;4934235;29;20055;-92
2023/01/08 11:39:22;;;;;;;10.90;8.30;;;;;;;7.13;64.86;101860.41;4918036;29;20042;-92
2023/01/08 11:42:16;;;;;;;12.93;7.93;;;;;;;7.19;65.02;101875.78;4917960;29;20039;-92
2023/01/08 11:44:51;;;;;;;11.73;7.38;;;;;;;7.41;64.80;101897.72;4910418;29;20445;-95
2023/01/08 11:47:45;;;;;;;15.55;7.55;;;;;;;7.26;65.31;101867.06;4940206;29;20027;-93
2023/01/08 11:50:33;;;;;;;18.42;7.80;;;;;;;7.45;65.35;101890.81;4928509;29;20031;-94
2023/01/08 11:53:19;;;;;;;15.75;10.27;;;;;;;7.13;65.39;101838.09;4918407;29;20086;-94
2023/01/08 11:56:03;;;;;;;14.18;8.20;;;;;;;7.42;65.62;101893.44;4903230;29;20034;-91
2023/01/08 11:58:50;;;;;;;12.35;7.70;;;;;;;7.46;65.59;101884.78;4933811;29;20074;-92
2023/01/08 12:01:50;;;;;;;16.05;8.27;;;;;;;7.21;65.65;101855.16;4933147;29;20039;-94
2023/01/08 12:04:26;;;;;;;13.70;7.25;;;;;;;7.46;65.91;101885.63;4927955;29;20031;-94
2023/01/08 12:07:16;;;;;;;11.27;8.70;;;;;;;7.37;66.30;101875.47;4918066;29;20039;-93
2023/01/08 12:09:46;;;;;;;15.45;9.30;;;;;;;7.14;66.44;101821.78;4949554;29;20504;-91
2023/01/08 12:12:37;;;;;;;15.77;7.47;;;;;;;7.44;66.22;101882.22;4903021;29;20054;-94
2023/01/08 12:15:18;;;;;;;13.63;7.88;;;;;;;7.46;66.56;101879.63;4917610;29;20115;-92
2023/01/08 12:17:47;;;;;;;12.02;7.97;;;;;;;7.44;66.72;101871.09;4917149;29;20505;-92
2023/01/08 12:20:59;;;;;;;12.00;7.10;;;;;;;7.46;66.18;101874.47;4932741;28;20042;-93
2023/01/08 12:23:34;;;;;;;11.75;6.60;;;;;;;7.44;66.54;101871.09;4922613;29;20086;-91
2023/01/08 12:26:23;;;;;;;10.93;8.57;;;;;;;7.09;66.62;101807.31;4917053;29;20039;-92
2023/01/08 12:29:13;;;;;;;14.15;8.55;;;;;;;7.24;66.55;101827.63;4903620;29;20042;-92
2023/01/08 12:32:15;;;;;;;9.77;7.10;;;;;;;7.49;66.35;101859.00;4925410;29;20039;-92
2023/01/08 12:34:58;;;;;;;13.15;8.43;;;;;;;7.14;66.73;101800.34;4933241;29;20087;-92
2023/01/08 12:37:35;;;;;;;12.80;8.80;;;;;;;7.27;66.87;101831.88;4934046;29;20031;-92
2023/01/08 12:40:25;;;;;;;15.63;8.57;;;;;;;7.40;67.10;101843.69;4917096;29;20050;-93
2023/01/08 12:42:51;;;;;;;17.88;10.38;;;;;;;7.24;66.95;101822.50;4887000;29;20070;-91
2023/01/08 12:45:27;;;;;;;18.35;9.85;;;;;;;7.18;66.88;101787.44;4900181;29;20494;-91
2023/01/08 12:48:00;;;;;;;15.88;10.98;;;;;;;7.53;66.48;101834.03;4893770;29;20031;-91
2023/01/08 12:50:31;;;;;;;13.05;8.45;;;;;;;7.53;66.43;101834.88;4901629;29;20035;-91
2023/01/08 12:53:08;;;;;;;13.30;8.82;;;;;;;7.21;66.51;101783.09;4948509;29;20055;-90
2023/01/08 12:55:36;;;;;;;10.35;7.72;;;;;;;7.51;66.44;101836.63;4895002;29;20497;-93
2023/01/08 12:58:11;;;;;;;15.55;10.73;;;;;;;7.53;66.69;101832.31;4932417;29;20035;-91
2023/01/08 13:00:43;;;;;;;12.50;7.43;;;;;;;7.24;66.71;101781.31;4932650;29;20047;-91
2023/01/08 13:03:14;;;;;;;13.07;8.57;;;;;;;7.41;67.01;101805.06;4917895;29;20051;-92
2023/01/08 13:05:41;;;;;;;16.23;10.10;;;;;;;7.53;67.12;101828.88;4917479;29;20074;-90
2023/01/08 13:08:35;;;;;;;23.17;12.65;;;;;;;7.43;66.90;101803.28;4901997;29;20071;-93
2023/01/08 13:11:01;;;;;;;15.20;9.95;;;;;;;7.48;66.12;101780.91;4926894;29;20023;-91
2023/01/08 13:13:30;;;;;;;17.92;11.10;;;;;;;7.75;66.09;101810.44;4917520;29;20122;-94
2023/01/08 13:16:19;;;;;;;15.05;8.18;;;;;;;7.48;66.26;101769.75;4918054;29;20035;-93
2023/01/08 13:18:55;;;;;;;14.75;8.95;;;;;;;7.41;66.45;101781.03;4917029;29;20071;-93
2023/01/08 13:21:36;;;;;;;18.10;8.32;;;;;;;7.63;66.58;101804.66;4932110;29;20039;-93
2023/01/08 13:24:27;;;;;;;10.50;8.00;;;;;;;7.50;66.20;101772.28;4932660;29;20737;-92
2023/01/08 13:26:53;;;;;;;11.13;9.10;;;;;;;7.43;66.09;101756.09;4918055;29;20035;-93
2023/01/08 13:29:32;;;;;;;17.50;10.57;;;;;;;7.39;66.24;101760.47;4917255;29;20512;-93
2023/01/08 13:31:57;;;;;;;15.77;9.93;;;;;;;7.31;66.13;101736.56;4917917;29;20122;-91
2023/01/08 13:34:35;;;;;;;23.50;11.57;;;;;;;7.35;66.34;101755.38;4901685;29;20763;-91
2023/01/08 13:37:01;;;;;;;18.10;10.07;;;;;;;7.46;66.15;101777.47;4900635;29;20079;-92
2023/01/08 13:39:37;;;;;;;15.00;10.35;;;;;;;7.40;65.53;101749.28;4901572;29;20130;-92
2023/01/08 13:42:19;;;;;;;23.23;9.55;;;;;;;7.36;65.45;101739.91;4901231;29;20035;-91
2023/01/08 13:44:49;;;;;;;17.02;10.07;;;;;;;7.42;65.45;101754.41;4912078;29;20054;-91
2023/01/08 13:47:28;;;;;;;30.25;10.15;;;;;;;7.52;65.53;101771.38;4908455;29;20121;-93
2023/01/08 13:49:53;;;;;;;29.40;13.57;;;;;;;7.36;65.17;101736.47;4901623;29;20039;-92
2023/01/08 13:52:42;;;;;;;28.33;14.00;;;;;;;7.46;65.82;101776.63;4901090;29;20065;-95
2023/01/08 13:55:13;;;;;;;14.20;9.38;;;;;;;7.32;66.15;101752.88;4902174;29;20035;-92
2023/01/08 13:57:41;;;;;;;11.23;7.68;;;;;;;7.47;66.04;101775.75;4930591;29;20038;-91
2023/01/08 14:00:08;;;;;;;15.07;11.65;;;;;;;7.69;65.75;101812.28;4900639;29;20572;-92
2023/01/08 14:02:48;;;;;;;21.85;14.13;;;;;;;7.52;65.76;101792.00;4900965;29;20117;-93
2023/01/08 14:05:21;;;;;;;20.63;10.70;;;;;;;7.37;65.72;101761.34;4899196;29;20039;-92
2023/01/08 14:07:47;;;;;;;23.02;12.55;;;;;;;7.47;66.04;101786.06;4916529;29;20075;-92
2023/01/08 14:10:13;;;;;;;19.15;13.57;;;;;;;7.36;65.91;101764.81;4916514;29;20035;-93
2023/01/08 14:12:38;;;;;;;14.95;11.55;;;;;;;7.27;65.83;101752.09;4901198;29;20094;-92
2023/01/08 14:15:08;;;;;;;19.70;11.25;;;;;;;7.47;65.94;101783.47;4901407;29;20485;-92
2023/01/08 14:17:34;;;;;;;26.17;12.38;;;;;;;7.33;66.16;101772.59;4901047;29;20309;-92
2023/01/08 14:20:00;;;;;;;14.93;9.93;;;;;;;7.28;65.89;101759.81;4900861;29;20043;-93
2023/01/08 14:22:30;;;;;;;17.90;10.57;;;;;;;7.38;66.42;101774.22;4916746;29;20571;-92
2023/01/08 14:24:57;;;;;;;19.90;11.00;;;;;;;7.41;66.21;101786.19;4901517;29;20039;-93
2023/01/08 14:27:24;;;;;;;23.42;13.57;;;;;;;7.24;66.33;101754.72;4898553;29;20174;-92
2023/01/08 14:29:50;;;;;;;24.55;13.15;;;;;;;7.10;66.95;101735.22;4901723;29;20100;-93
2023/01/08 14:32:17;;;;;;;19.83;10.35;;;;;;;7.26;66.55;101752.97;4901032;29;20032;-92
2023/01/08 14:34:43;;;;;;;17.25;9.75;;;;;;;7.56;66.24;101798.78;4902042;29;21152;-94
2023/01/08 14:37:12;;;;;;;16.85;9.02;;;;;;;7.38;66.08;101776.78;4901261;29;20476;-93
2023/01/08 14:39:38;;;;;;;19.27;8.85;;;;;;;7.21;66.43;101760.78;4908202;29;20243;-91
2023/01/08 14:42:45;;;;;;;13.60;10.35;;;;;;;7.21;66.51;101768.50;4902870;29;20114;-93
2023/01/08 14:45:16;;;;;;;14.68;9.18;;;;;;;7.10;66.83;101760.97;4920909;29;20513;-92
2023/01/08 14:47:48;;;;;;;10.43;9.38;;;;;;;7.01;66.79;101743.09;4921063;29;20061;-94
2023/01/08 14:50:23;;;;;;;15.35;9.82;;;;;;;6.93;67.22;101734.66;4898551;29;20473;-93
2023/01/08 14:52:50;;;;;;;25.17;11.80;;;;;;;7.07;67.47;101768.72;4935754;29;20052;-94
2023/01/08 14:55:17;;;;;;;15.05;10.68;;;;;;;7.09;67.68;101777.28;4902983;29;20036;-93
2023/01/08 14:57:53;;;;;;;18.17;9.63;;;;;;;6.97;67.72;101772.31;4905733;29;20028;-94
2023/01/08 15:00:27;;;;;;;13.07;9.57;;;;;;;6.97;68.34;101784.31;4906898;29;20046;-92
2023/01/08 15:02:52;;;;;;;21.00;13.73;;;;;;;6.69;68.47;101743.59;4906927;29;20035;-93
2023/01/08 15:05:20;;;;;;;18.75;14.18;;;;;;;6.81;68.62;101774.28;4906192;29;20584;-93
2023/01/08 15:08:03;;;;;;;27.05;14.93;;;;;;;6.74;68.92;101777.81;4902746;29;20031;-92
2023/01/08 15:10:37;;;;;;;27.25;13.70;;;;;;;6.55;68.83;101759.22;4914382;29;20093;-92
2023/01/08 15:13:06;;;;;;;30.55;16.40;;;;;;;6.43;69.15;101743.13;4903238;29;20513;-92
2023/01/08 15:15:32;;;;;;;26.92;15.93;;;;;;;6.47;69.53;101757.63;4905393;29;20039;-90
2023/01/08 15:17:58;;;;;;;30.67;15.95;;;;;;;6.72;69.38;101796.72;4905602;29;20165;-92
2023/01/08 15:20:26;;;;;;;27.75;15.32;;;;;;;6.53;68.87;101773.81;4905748;29;20093;-91
2023/01/08 15:22:51;;;;;;;17.95;11.48;;;;;;;6.41;69.13;101775.72;4904174;29;20119;-91
2023/01/08 15:25:24;;;;;;;25.80;15.15;;;;;;;6.14;68.85;101736.66;4905966;29;20122;-93
2023/01/08 15:27:58;;;;;;;20.52;12.60;;;;;;;6.41;69.12;101786.00;4917670;29;20027;-92
2023/01/08 15:30:44;;;;;;;21.75;13.25;;;;;;;6.19;69.19;101755.41;4904809;29;20027;-93
2023/01/08 15:33:19;;;;;;;19.80;13.15;;;;;;;6.23;69.13;101762.22;4934677;29;20402;-92
2023/01/08 15:35:45;;;;;;;21.48;14.02;;;;;;;5.97;69.46;101744.56;4920421;29;20031;-93
2023/01/08 15:38:12;;;;;;;34.55;20.50;;;;;;;5.88;69.65;101746.34;4916035;29;20419;-91
2023/01/08 15:40:37;;;;;;;29.08;17.58;;;;;;;5.80;69.57;101741.34;4902705;29;20047;-93
2023/01/08 15:43:08;;;;;;;22.40;14.23;;;;;;;5.58;70.01;101720.16;4905653;29;20039;-92
2023/01/08 15:45:34;;;;;;;20.45;12.50;;;;;;;5.73;70.23;101747.41;4906522;29;20063;-92
2023/01/08 15:48:00;;;;;;;28.00;15.85;;;;;;;5.63;70.29;101740.66;4904247;29;20143;-91
2023/01/08 15:50:26;;;;;;;28.75;15.13;;;;;;;5.36;70.03;101703.28;4905120;29;20070;-91
2023/01/08 15:52:51;;;;;;;24.05;14.90;;;;;;;5.42;70.08;101726.34;4905186;29;20138;-92
2023/01/08 15:55:18;;;;;;;27.75;18.15;;;;;;;5.52;70.58;101752.75;4904744;29;20031;-93
2023/01/08 15:57:44;;;;;;;22.88;16.10;;;;;;;5.30;71.03;101734.97;4904074;29;20094;-93